createdAt,value
2022-09-12T00:00:44.444Z,30
2022-09-12T00:01:46.699Z,30.2
2022-09-12T00:02:48.847Z,30.1
2022-09-12T00:03:50.780Z,30.3
2022-09-12T00:04:53.246Z,30.2
2022-09-12T00:05:55.752Z,30.1
2022-09-12T00:06:58.236Z,30.2
2022-09-12T00:08:00.434Z,30
2022-09-12T00:09:02.924Z,30.3
2022-09-12T00:10:05.394Z,30.2
2022-09-12T00:11:07.863Z,30.2
2022-09-12T00:12:10.335Z,30.3
2022-09-12T00:13:12.915Z,30.2
2022-09-12T00:14:15.395Z,30.4
2022-09-12T00:15:17.889Z,30.1
2022-09-12T00:16:20.180Z,30.3
2022-09-12T00:17:22.997Z,30.2
2022-09-12T00:18:25.475Z,30.2
2022-09-12T00:19:27.948Z,30
2022-09-12T00:20:30.156Z,30.1
2022-09-12T00:21:32.638Z,30.2
2022-09-12T00:22:34.563Z,30.4
2022-09-12T00:23:37.035Z,30.3
2022-09-12T00:24:39.535Z,30.3
2022-09-12T00:25:41.730Z,30.4
2022-09-12T00:26:43.912Z,30.2
2022-09-12T00:27:46.391Z,30.3
2022-09-12T00:28:48.883Z,30.5
2022-09-12T00:29:51.084Z,30.2
2022-09-12T00:30:53.317Z,30.3
2022-09-12T00:31:55.843Z,30.5
2022-09-12T00:32:58.655Z,30.4
2022-09-12T00:34:00.967Z,30.2
2022-09-12T00:35:03.470Z,30.4
2022-09-12T00:36:05.933Z,30.4
2022-09-12T00:37:08.141Z,30.3
2022-09-12T00:38:10.317Z,30.3
2022-09-12T00:39:12.789Z,30.6
2022-09-12T00:40:15.313Z,30.5
2022-09-12T00:41:18.037Z,30.5
2022-09-12T00:42:20.239Z,30.3
2022-09-12T00:43:22.711Z,30.4
2022-09-12T00:44:24.901Z,30.3
2022-09-12T00:45:27.121Z,30.4
2022-09-12T00:46:29.823Z,30.4
2022-09-12T00:47:32.285Z,30.4
2022-09-12T00:48:34.788Z,30.3
2022-09-12T00:49:37.440Z,30.2
2022-09-12T00:50:39.909Z,30.2
2022-09-12T00:51:42.377Z,30.4
2022-09-12T00:52:44.871Z,30.5
2022-09-12T00:53:47.348Z,30.3
2022-09-12T00:54:49.830Z,30.5
2022-09-12T00:55:52.041Z,30.2
2022-09-12T00:56:54.258Z,30.4
2022-09-12T00:57:56.450Z,30.2
2022-09-12T00:58:58.368Z,30.4
2022-09-12T01:00:00.861Z,30.5
2022-09-12T01:01:03.146Z,30.3
2022-09-12T01:02:06.262Z,30.4
2022-09-12T01:03:09.479Z,30.2
2022-09-12T01:04:11.958Z,30.3
2022-09-12T01:05:14.167Z,30.3
2022-09-12T01:06:16.363Z,30.3
2022-09-12T01:07:18.836Z,30.5
2022-09-12T01:08:21.326Z,30.3
2022-09-12T01:09:23.805Z,30.3
2022-09-12T01:10:25.721Z,30.2
2022-09-12T01:11:27.970Z,30.5
2022-09-12T01:12:30.433Z,30.3
2022-09-12T01:13:32.918Z,30.5
2022-09-12T01:14:35.391Z,30.3
2022-09-12T01:15:37.611Z,30.2
2022-09-12T01:16:39.545Z,30.3
2022-09-12T01:17:41.980Z,30.2
2022-09-12T01:18:44.228Z,30.4
2022-09-12T01:19:47.328Z,30.2
2022-09-12T01:20:49.503Z,30.2
2022-09-12T01:21:51.974Z,30.3
2022-09-12T01:22:54.442Z,30.2
2022-09-12T01:23:56.662Z,30.2
2022-09-12T01:24:58.865Z,30.3
2022-09-12T01:26:01.337Z,30.3
2022-09-12T01:27:03.545Z,30.4
2022-09-12T01:28:05.745Z,30.1
2022-09-12T01:29:07.937Z,30.1
2022-09-12T01:30:10.418Z,30.3
2022-09-12T01:31:12.900Z,30.2
2022-09-12T01:32:15.401Z,30.1
2022-09-12T01:33:18.090Z,29.9
2022-09-12T01:34:20.558Z,30
2022-09-12T01:35:23.056Z,29.8
2022-09-12T01:36:24.978Z,30.1
2022-09-12T01:37:27.445Z,29.9
2022-09-12T01:38:29.922Z,30
2022-09-12T01:39:32.402Z,30
2022-09-12T01:40:34.871Z,30.1
2022-09-12T01:41:36.793Z,29.8
2022-09-12T01:42:39.074Z,29.8
2022-09-12T01:43:41.541Z,30
2022-09-12T01:44:43.719Z,29.9
2022-09-12T01:45:46.218Z,30
2022-09-12T01:46:48.673Z,30
2022-09-12T01:47:51.149Z,29.9
2022-09-12T01:48:53.650Z,29.9
2022-09-12T01:49:56.119Z,29.8
2022-09-12T01:50:58.369Z,30
2022-09-12T01:52:00.563Z,30.1
2022-09-12T01:53:02.739Z,29.9
2022-09-12T01:54:04.668Z,30.1
2022-09-12T01:55:09.680Z,30
2022-09-12T01:56:11.875Z,29.7
2022-09-12T01:57:14.349Z,29.9
2022-09-12T01:58:16.837Z,30
2022-09-12T01:59:19.298Z,29.8
2022-09-12T02:00:21.491Z,29.8
2022-09-12T02:01:23.799Z,30
2022-09-12T02:02:26.373Z,30
2022-09-12T02:03:28.854Z,29.8
2022-09-12T02:04:34.214Z,29.9
2022-09-12T02:05:36.322Z,29.8
2022-09-12T02:06:38.832Z,30
2022-09-12T02:07:41.294Z,29.9
2022-09-12T02:08:43.829Z,29.8
2022-09-12T02:09:46.834Z,29.8
2022-09-12T02:10:49.327Z,29.7
2022-09-12T02:11:51.802Z,30
2022-09-12T02:12:54.000Z,29.8
2022-09-12T02:13:56.500Z,29.9
2022-09-12T02:14:58.982Z,29.8
2022-09-12T02:16:01.461Z,29.9
2022-09-12T02:17:03.653Z,30
2022-09-12T02:18:06.145Z,29.8
2022-09-12T02:19:08.610Z,29.8
2022-09-12T02:20:17.731Z,29.6
2022-09-12T02:21:16.095Z,29.7
2022-09-12T02:22:18.315Z,29.8
2022-09-12T02:23:20.514Z,29.9
2022-09-12T02:24:22.725Z,29.8
2022-09-12T02:25:25.202Z,30
2022-09-12T02:26:27.691Z,29.8
2022-09-12T02:27:30.159Z,29.8
2022-09-12T02:28:32.352Z,30
2022-09-12T02:29:34.570Z,29.7
2022-09-12T02:30:36.775Z,29.6
2022-09-12T02:31:39.414Z,29.9
2022-09-12T02:32:41.343Z,29.9
2022-09-12T02:33:43.839Z,29.8
2022-09-12T02:34:46.316Z,30
2022-09-12T02:35:48.539Z,29.6
2022-09-12T02:36:50.724Z,29.6
2022-09-12T02:37:53.215Z,29.9
2022-09-12T02:38:55.686Z,29.9
2022-09-12T02:39:58.254Z,29.9
2022-09-12T02:41:01.057Z,29.9
2022-09-12T02:42:03.276Z,29.9
2022-09-12T02:43:05.465Z,29.6
2022-09-12T02:44:07.943Z,29.9
2022-09-12T02:45:10.162Z,29.9
2022-09-12T02:46:12.631Z,29.8
2022-09-12T02:47:15.115Z,29.7
2022-09-12T02:48:17.591Z,29.7
2022-09-12T02:49:20.081Z,29.6
2022-09-12T02:50:22.550Z,29.5
2022-09-12T02:51:24.759Z,29.8
2022-09-12T02:52:27.231Z,29.8
2022-09-12T02:53:29.726Z,29.7
2022-09-12T02:54:32.224Z,29.7
2022-09-12T02:55:34.414Z,29.7
2022-09-12T02:56:36.894Z,29.8
2022-09-12T02:57:39.090Z,29.6
2022-09-12T02:58:41.591Z,29.8
2022-09-12T02:59:44.115Z,29.9
2022-09-12T03:00:46.346Z,29.7
2022-09-12T03:01:48.881Z,29.7
2022-09-12T03:02:51.402Z,30
2022-09-12T03:03:53.872Z,29.7
2022-09-12T03:04:56.082Z,29.9
2022-09-12T03:05:58.550Z,29.8
2022-09-12T03:07:00.771Z,29.4
2022-09-12T03:08:02.663Z,29.8
2022-09-12T03:09:04.875Z,29.7
2022-09-12T03:10:07.089Z,29.7
2022-09-12T03:11:09.305Z,29.8
2022-09-12T03:12:11.779Z,29.9
2022-09-12T03:13:14.274Z,29.8
2022-09-12T03:14:16.757Z,29.8
2022-09-12T03:15:19.235Z,29.7
2022-09-12T03:16:21.762Z,29.6
2022-09-12T03:17:24.366Z,29.8
2022-09-12T03:18:26.561Z,29.7
2022-09-12T03:19:28.480Z,29.6
2022-09-12T03:20:30.679Z,29.5
2022-09-12T03:21:33.147Z,29.7
2022-09-12T03:22:35.115Z,29.6
2022-09-12T03:23:37.293Z,29.8
2022-09-12T03:24:39.790Z,29.4
2022-09-12T03:25:41.980Z,29.8
2022-09-12T03:26:44.453Z,29.5
2022-09-12T03:27:46.628Z,29.9
2022-09-12T03:28:48.835Z,29.7
2022-09-12T03:29:51.296Z,29.6
2022-09-12T03:30:53.590Z,29.6
2022-09-12T03:31:56.161Z,29.7
2022-09-12T03:32:58.649Z,29.6
2022-09-12T03:34:01.117Z,29.7
2022-09-12T03:35:03.621Z,29.7
2022-09-12T03:36:06.094Z,29.7
2022-09-12T03:37:08.565Z,29.6
2022-09-12T03:38:10.787Z,29.6
2022-09-12T03:39:12.984Z,29.4
2022-09-12T03:40:15.517Z,29.8
2022-09-12T03:41:17.609Z,29.7
2022-09-12T03:42:19.534Z,29.7
2022-09-12T03:43:22.011Z,29.9
2022-09-12T03:44:24.503Z,29.6
2022-09-12T03:45:27.034Z,29.3
2022-09-12T03:46:29.536Z,29.4
2022-09-12T03:47:32.027Z,29.7
2022-09-12T03:48:34.609Z,29.5
2022-09-12T03:49:37.254Z,29.7
2022-09-12T03:50:39.451Z,29.6
2022-09-12T03:51:41.674Z,29.5
2022-09-12T03:52:43.569Z,29.8
2022-09-12T03:53:45.786Z,29.7
2022-09-12T03:54:47.986Z,29.6
2022-09-12T03:55:50.486Z,29.5
2022-09-12T03:56:52.952Z,29.5
2022-09-12T03:57:55.430Z,29.8
2022-09-12T03:58:57.901Z,29.5
2022-09-12T04:00:00.124Z,29.4
2022-09-12T04:01:02.087Z,29.6
2022-09-12T04:02:04.571Z,29.6
2022-09-12T04:03:07.292Z,29.6
2022-09-12T04:04:09.775Z,29.5
2022-09-12T04:05:11.952Z,29.4
2022-09-12T04:06:14.177Z,29.8
2022-09-12T04:07:16.655Z,29.6
2022-09-12T04:08:19.142Z,29.5
2022-09-12T04:09:21.632Z,29.5
2022-09-12T04:10:24.097Z,29.5
2022-09-12T04:11:26.578Z,29.6
2022-09-12T04:12:29.045Z,29.5
2022-09-12T04:13:31.265Z,29.5
2022-09-12T04:14:33.737Z,29.8
2022-09-12T04:15:35.928Z,29.6
2022-09-12T04:16:38.201Z,29.6
2022-09-12T04:17:40.773Z,29.5
2022-09-12T04:18:43.102Z,29.5
2022-09-12T04:19:46.278Z,29.5
2022-09-12T04:20:48.755Z,29.5
2022-09-12T04:21:50.961Z,29.5
2022-09-12T04:22:53.452Z,29.4
2022-09-12T04:23:55.924Z,29.5
2022-09-12T04:24:57.847Z,29.3
2022-09-12T04:26:00.311Z,29.5
2022-09-12T04:27:06.014Z,29.5
2022-09-12T04:28:07.800Z,29.4
2022-09-12T04:29:10.261Z,29.5
2022-09-12T04:30:12.738Z,29.6
2022-09-12T04:31:14.943Z,29.4
2022-09-12T04:32:17.423Z,29.5
2022-09-12T04:33:19.597Z,29.5
2022-09-12T04:34:22.090Z,29.5
2022-09-12T04:35:24.261Z,29.4
2022-09-12T04:36:26.463Z,29.6
2022-09-12T04:37:28.658Z,29.4
2022-09-12T04:38:30.875Z,29.7
2022-09-12T04:39:33.342Z,29.5
2022-09-12T04:40:35.577Z,29.4
2022-09-12T04:41:38.061Z,29.6
2022-09-12T04:42:40.561Z,29.5
2022-09-12T04:43:42.753Z,29.5
2022-09-12T04:44:45.226Z,29.7
2022-09-12T04:45:47.157Z,29.5
2022-09-12T04:46:49.835Z,29.5
2022-09-12T04:47:52.302Z,29.6
2022-09-12T04:48:56.811Z,29.4
2022-09-12T04:49:59.498Z,29.5
2022-09-12T04:51:02.003Z,29.3
2022-09-12T04:52:04.478Z,29.4
2022-09-12T04:53:06.674Z,29.7
2022-09-12T04:54:08.889Z,29.5
2022-09-12T04:55:11.379Z,29.5
2022-09-12T04:56:13.882Z,29.6
2022-09-12T04:57:16.075Z,29.7
2022-09-12T04:58:18.562Z,29.5
2022-09-12T04:59:21.037Z,29.3
2022-09-12T05:00:23.521Z,29.5
2022-09-12T05:01:25.479Z,29.5
2022-09-12T05:02:28.393Z,29.4
2022-09-12T05:03:31.100Z,29.4
2022-09-12T05:04:33.012Z,29.5
2022-09-12T05:05:35.205Z,29.6
2022-09-12T05:06:37.702Z,29.5
2022-09-12T05:07:39.888Z,29.5
2022-09-12T05:08:42.451Z,29.4
2022-09-12T05:09:44.834Z,29.4
2022-09-12T05:10:47.312Z,29.5
2022-09-12T05:12:05.603Z,29.6
2022-09-12T05:12:54.228Z,29.5
2022-09-12T05:13:56.727Z,29.5
2022-09-12T05:14:58.928Z,29.4
2022-09-12T05:16:01.099Z,29.6
2022-09-12T05:17:03.514Z,29.4
2022-09-12T05:18:06.039Z,29.7
2022-09-12T05:19:08.246Z,29.5
2022-09-12T05:20:10.444Z,29.4
2022-09-12T05:21:12.640Z,29.5
2022-09-12T05:22:14.864Z,29.4
2022-09-12T05:23:17.336Z,29.3
2022-09-12T05:24:19.817Z,29.5
2022-09-12T05:25:22.423Z,29.6
2022-09-12T05:26:24.900Z,29.3
2022-09-12T05:27:27.098Z,29.7
2022-09-12T05:28:29.274Z,29.5
2022-09-12T05:29:31.834Z,29.4
2022-09-12T05:30:33.822Z,29.3
2022-09-12T05:31:36.468Z,29.5
2022-09-12T05:32:38.670Z,29.4
2022-09-12T05:33:41.167Z,29.4
2022-09-12T05:34:43.654Z,29.5
2022-09-12T05:35:45.861Z,29.4
2022-09-12T05:36:48.049Z,29.4
2022-09-12T05:37:50.257Z,29.5
2022-09-12T05:38:52.729Z,29.4
2022-09-12T05:39:54.997Z,29.5
2022-09-12T05:40:57.760Z,29.3
2022-09-12T05:42:00.240Z,29.4
2022-09-12T05:43:02.194Z,29.5
2022-09-12T05:44:04.392Z,29.4
2022-09-12T05:45:06.886Z,29.4
2022-09-12T05:46:08.806Z,29.4
2022-09-12T05:47:10.957Z,29.5
2022-09-12T05:48:13.437Z,29.3
2022-09-12T05:49:15.916Z,29.3
2022-09-12T05:50:18.133Z,29.5
2022-09-12T05:51:20.327Z,29.4
2022-09-12T05:52:22.246Z,29.5
2022-09-12T05:53:24.741Z,29.3
2022-09-12T05:54:29.562Z,29.3
2022-09-12T05:55:31.966Z,29.4
2022-09-12T05:56:34.238Z,29.5
2022-09-12T05:57:36.707Z,29.5
2022-09-12T05:58:39.206Z,29.6
2022-09-12T05:59:41.762Z,29.5
2022-09-12T06:00:43.997Z,29.3
2022-09-12T06:01:46.502Z,29.4
2022-09-12T06:02:49.589Z,29.4
2022-09-12T06:03:52.085Z,29.6
2022-09-12T06:04:54.312Z,29.4
2022-09-12T06:05:56.493Z,29.3
2022-09-12T06:06:58.669Z,29.3
2022-09-12T06:08:00.881Z,29.7
2022-09-12T06:09:03.368Z,29.5
2022-09-12T06:10:05.573Z,29.4
2022-09-12T06:11:07.774Z,29.4
2022-09-12T06:12:10.276Z,29.4
2022-09-12T06:13:11.909Z,29.5
2022-09-12T06:14:14.158Z,29.4
2022-09-12T06:15:16.367Z,29.3
2022-09-12T06:16:18.927Z,29.5
2022-09-12T06:17:21.647Z,29.3
2022-09-12T06:18:23.831Z,29.5
2022-09-12T06:19:26.034Z,29.2
2022-09-12T06:20:28.254Z,29.3
2022-09-12T06:21:30.483Z,29.4
2022-09-12T06:22:32.688Z,29.5
2022-09-12T06:23:35.170Z,29.4
2022-09-12T06:24:37.654Z,29.6
2022-09-12T06:25:40.164Z,29.4
2022-09-12T06:26:42.371Z,29.5
2022-09-12T06:27:44.867Z,29.3
2022-09-12T06:28:47.403Z,29.4
2022-09-12T06:29:49.841Z,29.5
2022-09-12T06:30:52.047Z,29.4
2022-09-12T06:31:54.199Z,29.4
2022-09-12T06:32:56.689Z,29.3
2022-09-12T06:33:58.925Z,29.5
2022-09-12T06:35:01.173Z,29.5
2022-09-12T06:36:03.677Z,29.7
2022-09-12T06:37:11.622Z,29.5
2022-09-12T06:38:14.102Z,29.5
2022-09-12T06:39:16.032Z,29.6
2022-09-12T06:40:17.710Z,29.6
2022-09-12T06:41:20.183Z,29.5
2022-09-12T06:42:22.100Z,29.5
2022-09-12T06:43:24.351Z,29.5
2022-09-12T06:44:26.308Z,29.4
2022-09-12T06:45:28.827Z,29.4
2022-09-12T06:46:31.287Z,29.5
2022-09-12T06:47:33.522Z,29.6
2022-09-12T06:48:38.393Z,29.6
2022-09-12T06:49:40.686Z,29.4
2022-09-12T06:50:42.866Z,29.3
2022-09-12T06:51:45.086Z,29.4
2022-09-12T06:52:47.314Z,29.5
2022-09-12T06:53:49.801Z,29.4
2022-09-12T06:54:52.273Z,29.4
2022-09-12T06:55:54.798Z,29.4
2022-09-12T06:56:57.271Z,29.5
2022-09-12T06:57:59.754Z,29.4
2022-09-12T06:59:01.394Z,29.4
2022-09-12T07:00:03.880Z,29.6
2022-09-12T07:01:05.891Z,29.4
2022-09-12T07:02:08.555Z,29.6
2022-09-12T07:03:11.082Z,29.5
2022-09-12T07:04:13.266Z,29.4
2022-09-12T07:05:15.759Z,29.5
2022-09-12T07:06:17.693Z,29.3
2022-09-12T07:07:20.254Z,29.6
2022-09-12T07:08:22.168Z,29.4
2022-09-12T07:09:24.638Z,29.5
2022-09-12T07:10:27.119Z,29.5
2022-09-12T07:11:29.315Z,29.4
2022-09-12T07:12:31.795Z,29.4
2022-09-12T07:13:33.695Z,29.5
2022-09-12T07:14:36.191Z,29.3
2022-09-12T07:15:38.659Z,29.3
2022-09-12T07:16:40.673Z,29.5
2022-09-12T07:17:43.592Z,29.3
2022-09-12T07:18:46.146Z,29.5
2022-09-12T07:19:48.349Z,29.4
2022-09-12T07:20:50.829Z,29.5
2022-09-12T07:21:57.997Z,29.4
2022-09-12T07:22:58.304Z,29.3
2022-09-12T07:24:00.522Z,29.4
2022-09-12T07:25:02.999Z,29.3
2022-09-12T07:26:05.473Z,29.5
2022-09-12T07:27:07.962Z,29.5
2022-09-12T07:28:10.163Z,29.4
2022-09-12T07:29:35.208Z,29.5
2022-09-12T07:30:17.627Z,29.3
2022-09-12T07:31:19.843Z,29.3
2022-09-12T07:32:22.339Z,29.4
2022-09-12T07:33:24.540Z,29.6
2022-09-12T07:34:27.046Z,29.5
2022-09-12T07:35:29.535Z,29.4
2022-09-12T07:36:32.035Z,29.4
2022-09-12T07:37:34.522Z,29.4
2022-09-12T07:38:36.991Z,29.4
2022-09-12T07:39:39.487Z,29.5
2022-09-12T07:40:42.164Z,29.2
2022-09-12T07:41:44.634Z,29.3
2022-09-12T07:42:46.859Z,29.4
2022-09-12T07:43:48.786Z,29.6
2022-09-12T07:44:50.992Z,29.3
2022-09-12T07:45:53.492Z,29.5
2022-09-12T07:46:56.232Z,29.2
2022-09-12T07:47:58.774Z,29.5
2022-09-12T07:49:00.695Z,29.4
2022-09-12T07:50:03.210Z,29.4
2022-09-12T07:51:05.146Z,29.4
2022-09-12T07:52:07.631Z,29.4
2022-09-12T07:53:10.126Z,29.5
2022-09-12T07:54:12.326Z,29.6
2022-09-12T07:55:14.518Z,29.5
2022-09-12T07:56:16.449Z,29.4
2022-09-12T07:57:18.931Z,29.3
2022-09-12T07:58:21.436Z,29.4
2022-09-12T07:59:41.743Z,29.4
2022-09-12T08:00:28.954Z,29.4
2022-09-12T08:01:31.498Z,29.4
2022-09-12T08:02:34.416Z,29.2
2022-09-12T08:03:37.172Z,29.5
2022-09-12T08:04:39.078Z,29.4
2022-09-12T08:05:41.588Z,29.3
2022-09-12T08:06:43.793Z,29.3
2022-09-12T08:07:46.268Z,29.4
2022-09-12T08:08:48.759Z,29.3
2022-09-12T08:09:50.956Z,29.3
2022-09-12T08:10:53.450Z,29.2
2022-09-12T08:11:55.934Z,29.3
2022-09-12T08:12:58.405Z,29.4
2022-09-12T08:14:00.628Z,29.3
2022-09-12T08:15:03.110Z,29.4
2022-09-12T08:16:05.379Z,29.4
2022-09-12T08:17:07.820Z,29.5
2022-09-12T08:18:10.317Z,29.4
2022-09-12T08:19:12.589Z,29.4
2022-09-12T08:20:14.785Z,29.3
2022-09-12T08:21:17.000Z,29.4
2022-09-12T08:22:19.492Z,29.2
2022-09-12T08:23:21.686Z,29.3
2022-09-12T08:24:23.917Z,29.4
2022-09-12T08:25:25.854Z,29.4
2022-09-12T08:26:28.071Z,29.2
2022-09-12T08:27:30.552Z,29.5
2022-09-12T08:28:33.052Z,29.3
2022-09-12T08:29:35.265Z,29.3
2022-09-12T08:30:37.497Z,29.4
2022-09-12T08:31:39.827Z,29.1
2022-09-12T08:32:42.013Z,29.5
2022-09-12T08:33:44.290Z,29.3
2022-09-12T08:34:47.071Z,29.3
2022-09-12T08:35:49.557Z,29.4
2022-09-12T08:36:52.052Z,29.3
2022-09-12T08:37:54.532Z,29.4
2022-09-12T08:38:59.514Z,29.3
2022-09-12T08:40:02.067Z,29.5
2022-09-12T08:41:04.297Z,29.1
2022-09-12T08:42:06.856Z,29.3
2022-09-12T08:43:09.562Z,29.4
2022-09-12T08:44:11.502Z,29.2
2022-09-12T08:45:13.715Z,29.3
2022-09-12T08:46:16.013Z,29.4
2022-09-12T08:47:18.481Z,29.4
2022-09-12T08:48:21.003Z,29.1
2022-09-12T08:49:23.499Z,29.2
2022-09-12T08:50:26.009Z,29.3
2022-09-12T08:51:28.485Z,29.1
2022-09-12T08:52:30.707Z,29.3
2022-09-12T08:53:32.914Z,29.5
2022-09-12T08:54:35.500Z,29.5
2022-09-12T08:55:37.974Z,29.3
2022-09-12T08:56:40.180Z,29.2
2022-09-12T08:57:42.677Z,29.4
2022-09-12T08:58:45.148Z,29.3
2022-09-12T08:59:47.622Z,29.4
2022-09-12T09:00:50.148Z,29.4
2022-09-12T09:01:52.412Z,29.6
2022-09-12T09:02:55.209Z,29.5
2022-09-12T09:03:57.517Z,29.4
2022-09-12T09:04:59.729Z,29.3
2022-09-12T09:06:01.967Z,29.3
2022-09-12T09:07:04.166Z,29.6
2022-09-12T09:08:06.654Z,29.4
2022-09-12T09:09:09.130Z,29.4
2022-09-12T09:10:11.617Z,29.3
2022-09-12T09:11:13.832Z,29.4
2022-09-12T09:12:16.326Z,29.3
2022-09-12T09:13:18.545Z,29.4
2022-09-12T09:14:21.030Z,29.4
2022-09-12T09:15:23.529Z,29.4
2022-09-12T09:16:26.171Z,29.6
2022-09-12T09:17:28.656Z,29.6
2022-09-12T09:18:30.553Z,29.3
2022-09-12T09:19:32.479Z,29.4
2022-09-12T09:20:34.695Z,29.5
2022-09-12T09:21:36.933Z,29.4
2022-09-12T09:22:39.398Z,29.3
2022-09-12T09:23:41.076Z,29.4
2022-09-12T09:24:43.733Z,29.3
2022-09-12T09:25:45.375Z,29.5
2022-09-12T09:26:47.853Z,29.4
2022-09-12T09:27:50.052Z,29.4
2022-09-12T09:28:52.272Z,29.6
2022-09-12T09:29:54.482Z,29.4
2022-09-12T09:30:57.005Z,29.4
2022-09-12T09:31:59.923Z,29.5
2022-09-12T09:33:01.583Z,29.6
2022-09-12T09:34:03.500Z,29.5
2022-09-12T09:35:05.973Z,29.4
2022-09-12T09:36:07.928Z,29.5
2022-09-12T09:37:09.864Z,29.5
2022-09-12T09:38:12.062Z,29.4
2022-09-12T09:39:14.556Z,29.3
2022-09-12T09:40:16.506Z,29.4
2022-09-12T09:41:19.689Z,29.5
2022-09-12T09:42:21.598Z,29.5
2022-09-12T09:43:24.070Z,29.4
2022-09-12T09:44:26.581Z,29.6
2022-09-12T09:45:28.761Z,29.3
2022-09-12T09:46:31.334Z,29.4
2022-09-12T09:47:34.030Z,29.3
2022-09-12T09:48:36.576Z,29.3
2022-09-12T09:49:38.817Z,29.5
2022-09-12T09:50:40.761Z,29.4
2022-09-12T09:51:42.716Z,29.4
2022-09-12T09:52:45.220Z,29.4
2022-09-12T09:53:47.425Z,29.4
2022-09-12T09:54:49.913Z,29.3
2022-09-12T09:55:51.850Z,29.5
2022-09-12T09:56:54.051Z,29.3
2022-09-12T09:57:56.530Z,29.4
2022-09-12T09:58:59.003Z,29.5
2022-09-12T10:00:01.233Z,29.3
2022-09-12T10:01:03.775Z,29.5
2022-09-12T10:02:06.290Z,29.7
2022-09-12T10:03:12.734Z,29.4
2022-09-12T10:04:13.982Z,29.6
2022-09-12T10:05:16.475Z,29.3
2022-09-12T10:06:18.953Z,29.6
2022-09-12T10:07:21.471Z,29.4
2022-09-12T10:08:23.692Z,29.3
2022-09-12T10:09:26.172Z,29.4
2022-09-12T10:10:28.679Z,29.4
2022-09-12T10:11:30.872Z,29.7
2022-09-12T10:12:33.067Z,29.1
2022-09-12T10:13:35.384Z,29.4
2022-09-12T10:14:37.509Z,29.5
2022-09-12T10:15:40.112Z,29.6
2022-09-12T10:16:42.851Z,29.3
2022-09-12T10:17:45.320Z,29.5
2022-09-12T10:18:47.931Z,29.3
2022-09-12T10:20:04.791Z,29.2
2022-09-12T10:20:55.399Z,29.3
2022-09-12T10:21:57.870Z,29.5
2022-09-12T10:23:00.129Z,29.3
2022-09-12T10:24:02.636Z,29.5
2022-09-12T10:25:05.176Z,29.5
2022-09-12T10:26:07.436Z,29.4
2022-09-12T10:27:09.635Z,29.5
2022-09-12T10:28:11.548Z,29.3
2022-09-12T10:29:13.756Z,29.1
2022-09-12T10:30:15.958Z,29.5
2022-09-12T10:31:18.237Z,29.3
2022-09-12T10:32:20.950Z,29.6
2022-09-12T10:33:27.898Z,29.3
2022-09-12T10:34:30.453Z,29.2
2022-09-12T10:35:32.361Z,29.4
2022-09-12T10:36:34.829Z,29.1
2022-09-12T10:37:37.035Z,29.5
2022-09-12T10:38:39.519Z,29.5
2022-09-12T10:39:42.032Z,29.6
2022-09-12T10:40:44.689Z,29.4
2022-09-12T10:41:47.170Z,29.4
2022-09-12T10:42:49.650Z,29.4
2022-09-12T10:43:51.832Z,29.4
2022-09-12T10:44:54.304Z,29.4
2022-09-12T10:45:56.815Z,29.3
2022-09-12T10:46:59.702Z,29.3
2022-09-12T10:48:06.967Z,29.4
2022-09-12T10:49:07.211Z,29.3
2022-09-12T10:50:09.432Z,29.5
2022-09-12T10:51:14.915Z,29.5
2022-09-12T10:52:17.414Z,29.4
2022-09-12T10:53:19.635Z,29.3
2022-09-12T10:54:21.639Z,29.3
2022-09-12T10:55:24.136Z,29.4
2022-09-12T10:56:26.617Z,29.3
2022-09-12T10:57:28.846Z,29.3
2022-09-12T10:58:30.470Z,29.3
2022-09-12T10:59:32.946Z,29.3
2022-09-12T11:00:35.141Z,29.3
2022-09-12T11:01:37.378Z,29.3
2022-09-12T11:02:40.383Z,29.4
2022-09-12T11:03:43.008Z,29.5
2022-09-12T11:04:45.212Z,29.4
2022-09-12T11:05:47.714Z,29.2
2022-09-12T11:06:50.197Z,29.5
2022-09-12T11:07:52.674Z,29.2
2022-09-12T11:08:54.872Z,29.3
2022-09-12T11:09:57.076Z,29.3
2022-09-12T11:10:59.308Z,29.4
2022-09-12T11:12:01.790Z,29.1
2022-09-12T11:13:03.767Z,29.5
2022-09-12T11:14:06.264Z,29.6
2022-09-12T11:15:08.753Z,29.4
2022-09-12T11:16:11.326Z,29.3
2022-09-12T11:17:14.252Z,29.4
2022-09-12T11:18:16.754Z,29.3
2022-09-12T11:19:18.963Z,29.4
2022-09-12T11:20:21.163Z,29.4
2022-09-12T11:21:23.681Z,29.2
2022-09-12T11:22:28.712Z,29.4
2022-09-12T11:23:30.859Z,29.5
2022-09-12T11:24:33.060Z,29.4
2022-09-12T11:25:35.284Z,29.3
2022-09-12T11:26:37.788Z,29.4
2022-09-12T11:27:39.704Z,29.3
2022-09-12T11:28:45.324Z,29.3
2022-09-12T11:29:47.029Z,29.3
2022-09-12T11:30:49.598Z,29.4
2022-09-12T11:31:52.006Z,29.3
2022-09-12T11:32:54.485Z,29.1
2022-09-12T11:33:57.068Z,29.4
2022-09-12T11:34:59.252Z,29.3
2022-09-12T11:36:01.455Z,29.4
2022-09-12T11:37:06.421Z,29.2
2022-09-12T11:38:08.960Z,29.4
2022-09-12T11:39:11.429Z,29.5
2022-09-12T11:40:13.695Z,29.2
2022-09-12T11:41:16.432Z,29.5
2022-09-12T11:42:18.933Z,29.2
2022-09-12T11:43:21.400Z,29.3
2022-09-12T11:44:23.892Z,29.5
2022-09-12T11:45:25.840Z,29.4
2022-09-12T11:46:27.822Z,29.2
2022-09-12T11:47:30.489Z,29.3
2022-09-12T11:48:32.698Z,29.5
2022-09-12T11:49:35.813Z,29.2
2022-09-12T11:50:38.076Z,29.4
2022-09-12T11:51:40.285Z,29.3
2022-09-12T11:52:42.490Z,29.3
2022-09-12T11:53:44.990Z,29.4
2022-09-12T11:54:52.911Z,29.5
2022-09-12T11:55:53.144Z,29.3
2022-09-12T11:56:55.624Z,29.3
2022-09-12T11:57:57.844Z,29.3
2022-09-12T11:59:00.312Z,29.3
2022-09-12T12:00:02.806Z,29.2
2022-09-12T12:01:04.994Z,29.3
2022-09-12T12:02:07.505Z,29.5
2022-09-12T12:03:10.362Z,29.6
2022-09-12T12:04:12.863Z,29.5
2022-09-12T12:05:15.364Z,29.4
2022-09-12T12:06:17.923Z,29.5
2022-09-12T12:07:20.395Z,29.7
2022-09-12T12:08:22.888Z,29.4
2022-09-12T12:09:25.360Z,29.4
2022-09-12T12:10:27.285Z,29.4
2022-09-12T12:11:29.465Z,29.4
2022-09-12T12:12:31.962Z,29.4
2022-09-12T12:13:34.455Z,29.4
2022-09-12T12:14:36.927Z,29.2
2022-09-12T12:15:39.459Z,29.3
2022-09-12T12:16:42.251Z,29.5
2022-09-12T12:17:44.794Z,29.4
2022-09-12T12:18:47.429Z,29.5
2022-09-12T12:19:49.900Z,29.4
2022-09-12T12:20:52.397Z,29.5
2022-09-12T12:21:54.872Z,29.4
2022-09-12T12:22:56.798Z,29.2
2022-09-12T12:23:59.011Z,29.4
2022-09-12T12:25:01.503Z,29.4
2022-09-12T12:26:03.712Z,29.3
2022-09-12T12:27:06.209Z,29.3
2022-09-12T12:28:08.722Z,29.5
2022-09-12T12:29:11.224Z,29.3
2022-09-12T12:30:13.403Z,29.3
2022-09-12T12:31:15.729Z,29.5
2022-09-12T12:32:18.508Z,29.5
2022-09-12T12:33:20.704Z,29.5
2022-09-12T12:34:22.917Z,29.4
2022-09-12T12:35:25.100Z,29.4
2022-09-12T12:36:27.589Z,29.3
2022-09-12T12:37:29.809Z,29.3
2022-09-12T12:38:31.991Z,29.3
2022-09-12T12:39:34.212Z,29.3
2022-09-12T12:40:36.422Z,29.3
2022-09-12T12:41:38.894Z,29.6
2022-09-12T12:42:41.369Z,29.2
2022-09-12T12:43:43.869Z,29.5
2022-09-12T12:44:46.488Z,29.3
2022-09-12T12:45:48.968Z,29.5
2022-09-12T12:46:51.648Z,29.4
2022-09-12T12:47:54.128Z,29.4
2022-09-12T12:48:56.333Z,29.4
2022-09-12T12:49:58.536Z,29.4
2022-09-12T12:51:00.718Z,29.4
2022-09-12T12:52:02.920Z,29.5
2022-09-12T12:53:05.122Z,29.2
2022-09-12T12:54:11.079Z,29.5
2022-09-12T12:55:12.328Z,29.5
2022-09-12T12:56:14.834Z,29.5
2022-09-12T12:57:17.342Z,29.3
2022-09-12T12:58:19.533Z,29.5
2022-09-12T12:59:21.759Z,29.4
2022-09-12T13:00:23.989Z,29.3
2022-09-12T13:01:26.238Z,29.4
2022-09-12T13:02:29.053Z,29.4
2022-09-12T13:03:31.901Z,29.4
2022-09-12T13:04:33.829Z,29.3
2022-09-12T13:05:36.306Z,29.3
2022-09-12T13:06:38.775Z,29.5
2022-09-12T13:07:40.734Z,29.4
2022-09-12T13:08:43.243Z,29.2
2022-09-12T13:09:45.271Z,29.5
2022-09-12T13:10:48.506Z,29.4
2022-09-12T13:11:50.771Z,29.4
2022-09-12T13:12:53.244Z,29.3
2022-09-12T13:13:55.450Z,29.4
2022-09-12T13:14:57.946Z,29.5
2022-09-12T13:16:00.490Z,29.4
2022-09-12T13:17:03.322Z,29.6
2022-09-12T13:18:05.836Z,29.3
2022-09-12T13:19:07.774Z,29.3
2022-09-12T13:20:27.041Z,29.4
2022-09-12T13:21:15.260Z,29.4
2022-09-12T13:22:17.744Z,29.5
2022-09-12T13:23:20.241Z,29.4
2022-09-12T13:24:22.711Z,29.4
2022-09-12T13:25:25.194Z,29.3
2022-09-12T13:26:27.124Z,29.5
2022-09-12T13:27:29.613Z,29.3
2022-09-12T13:28:32.093Z,29.5
2022-09-12T13:29:34.571Z,29.6
2022-09-12T13:30:36.790Z,29.3
2022-09-12T13:31:40.341Z,29.4
2022-09-12T13:32:46.943Z,29.6
2022-09-12T13:33:49.168Z,29.4
2022-09-12T13:34:51.647Z,29.4
2022-09-12T13:35:54.120Z,29.2
2022-09-12T13:36:56.049Z,29.4
2022-09-12T13:37:58.261Z,29.2
2022-09-12T13:39:00.463Z,29.4
2022-09-12T13:40:02.439Z,29.4
2022-09-12T13:41:05.088Z,29.4
2022-09-12T13:42:06.740Z,29.6
2022-09-12T13:43:09.235Z,29.4
2022-09-12T13:44:11.133Z,29.4
2022-09-12T13:45:13.055Z,29.2
2022-09-12T13:46:15.595Z,29.4
2022-09-12T13:47:17.703Z,29.4
2022-09-12T13:48:20.170Z,29.3
2022-09-12T13:49:22.385Z,29.2
2022-09-12T13:50:24.868Z,29.3
2022-09-12T13:51:27.352Z,29.4
2022-09-12T13:52:29.570Z,29.5